AirNav   Air Wisconsin Up To $57,000 Bonus
 
 4587 users online  

T71 Cuero Municipal Airport
Cuero, Texas, USA

GOING TO CUERO?


FAA INFORMATION EFFECTIVE 20 MAY 2021

Location

FAA Identifier: T71
Lat/Long: 29-05-00.9170N 097-16-00.9630W
29-05.015283N 097-16.016050W
29.0835881,-97.2669342
(estimated)
Elevation: 214 ft. / 65.2 m (surveyed)
Variation: 07E (1985)
From city: 1 mile E of CUERO, TX
Time zone: UTC -5 (UTC -6 during Standard Time)
Zip code: 77954

Airport Operations

Airport use: Open to the public
Activation date: 08/1952
Control tower: no
ARTCC: HOUSTON CENTER
FSS: MONTGOMERY COUNTY FLIGHT SERVICE STATION
NOTAMs facility: CXO (NOTAM-D service available)
Attendance: UNATNDD
Wind indicator: lighted
Segmented circle: yes
Lights: SS-SR
Beacon: white-green (lighted land airport)
Operates sunset to sunrise.

Airport Communications

CTAF: 122.9

Nearby radio navigation aids

VOR radial/distance  VOR name  Freq  Var
VCTr300/18.7VICTORIA VOR/DME109.0006E

Airport Services

Parking: tiedowns
Airframe service: NONE
Powerplant service: NONE
Bottled oxygen: NONE
Bulk oxygen: NONE

Runway Information

Runway 14/32

Dimensions: 2800 x 60 ft. / 853 x 18 m
Surface: asphalt, in fair condition
Weight bearing capacity: 
Single wheel: 11.0
Runway edge lights: low intensity
Runway edge markings: MARKINGS FADED.
RUNWAY 14  RUNWAY 32
Traffic pattern: leftleft
Displaced threshold: 243 ft.192 ft.
THR DSPLCD 202 FT AT NGT.
Markings: basic, in poor conditionbasic, in poor condition
Obstructions: 42 ft. pole, lighted, 824 ft. from runway, 145 ft. right of centerline, 14:1 slope to clear
APCH RATIO 25:1 FM DSPLCD THR.
23 ft. rr, 380 ft. from runway, 143 ft. left of centerline, 7:1 slope to clear
APCH SLOPE 24:1 TO DSPLCD THR.

Airport Ownership and Management from official FAA records

Ownership: Publicly-owned
Owner: CITY OF CUERO
P O BOX 660
CUERO, TX 77954
Phone (361) 243-2041
Manager: WAYNE BERGER
P O BOX 660
CUERO, TX 77954
Phone 360-243-2041

Airport Operational Statistics

Aircraft operations: 160/year *
62% local general aviation
38% transient general aviation
* for 12-month period ending 11 May 2020

Additional Remarks

DEER & WILD HOGS ON & INVOF ARPT.
FOR CD CTC HOUSTON ARTCC AT 281-230-5622.

Instrument Procedures

There are no published instrument procedures at T71.

Some nearby airports with instrument procedures:

T85 - Yoakum Municipal Airport (15 nm NE)
KVCT - Victoria Regional Airport (23 nm SE)
KNGT - Goliad Naval Outlying Field (34 nm SW)
2R9 - Kenedy Regional Airport (35 nm SW)
26R - Jackson County Airport (36 nm E)
 
Loc | Ops | Rwys | IFR | FBO | Links
Com | Nav | Svcs | Stats | Notes
Area around T71 (Cuero Municipal Airport)
 
Road maps at: MapQuest Bing Google
 
Aerial photo
WARNING: Photo may not be current or correct
Aerial photo of T71 (Cuero Municipal Airport)
Do you have a better or more recent aerial photo of Cuero Municipal Airport that you would like to share? If so, please send us your photo.

 
Sectional chart

 
Airport distance calculator
Flying to Cuero Municipal Airport? Find the distance to fly.

From to T71

Sunrise and sunset
Times for 15-Jun-2021
 Local
(UTC-5)
 Zulu
(UTC)
Morning civil twilight06:0411:04
Sunrise06:3111:31
Sunset20:2801:28
Evening civil twilight20:5501:55

Current date and time
Zulu (UTC)  15-Jun-2021 13:08:42
Local (UTC-5)  15-Jun-2021 08:08:42
 
METAR
KVCT 
22nm SE 
151251Z 01004KT 10SM CLR 25/22 A2997 RMK AO2 SLP148 T02500222
KT20 
29nm N 
151255Z AUTO 00000KT 10SM CLR 25/24 A2999 RMK AO2 T02490237
K2R9 
35nm SW 
151255Z AUTO 00000KT 10SM CLR 24/20 A3000 RMK AO2 T02360199
KPKV 
40nm SE 
151300Z AUTO 02004KT 10SM 26/23 A2997 RMK AO2 T02560225
TAF
KVCT 
22nm SE 
151123Z 1512/1612 VRB03KT P6SM FEW005 TEMPO 1512/1514 5SM BR SCT005 FM151500 03005KT P6SM SCT025 SCT250 FM152100 06006KT P6SM VCTS SCT050CB BKN250 PROB30 1522/1602 VRB15G25KT 5SM TSRA BKN035CB FM160300 11005KT P6SM SCT025 BKN250 FM160800 VRB02KT 4SM BR SCT005 TEMPO 1609/1612 1SM BR BKN005
NOTAMs
Click for the latest NOTAMs
NOTAMs are issued by the DoD/FAA and will open in a separate window not controlled by AirNav.

 

 
 

Would you like to see your business listed on this page?

 If your business provides an interesting product or service to pilots, flight crews, aircraft, or users of the Cuero Municipal Airport, you should consider listing it here.  To start the listing process, click on the button below
 
Add a business
 

Other Pages about Cuero Municipal Airport

Update a link
 
Copyright © AirNav, LLC. All rights reserved. Privacy Policy  Contact